createdAt,value
2017-08-20T16:04:03.777Z,32
2017-08-20T16:04:29.525Z,31
2017-08-20T16:05:31.063Z,30
2017-08-20T16:06:32.582Z,31
2017-08-20T16:07:37.445Z,28
2017-08-20T16:08:39.925Z,46
2017-08-20T16:09:42.495Z,47
2017-08-20T16:10:44.042Z,48
2017-08-20T16:11:45.790Z,46
2017-08-20T16:12:47.003Z,48
2017-08-20T16:13:49.600Z,48
2017-08-20T16:14:53.509Z,45
2017-08-20T16:15:55.067Z,49
2017-08-20T16:16:50.463Z,34
2017-08-20T16:17:53.817Z,33
2017-08-20T16:18:55.567Z,33
2017-08-20T16:20:00.639Z,31
2017-08-20T16:21:03.391Z,32
2017-08-20T16:22:06.564Z,32
2017-08-20T16:23:08.085Z,28
2017-08-20T16:24:09.332Z,32
2017-08-20T16:25:11.087Z,29
2017-08-20T16:26:12.403Z,29
2017-08-20T16:27:14.043Z,32
2017-08-20T16:28:15.263Z,31
2017-08-20T16:29:16.973Z,29
2017-08-20T16:30:24.340Z,28
2017-08-20T16:31:25.985Z,32
2017-08-20T16:32:30.141Z,32
2017-08-20T16:33:31.688Z,31
2017-08-20T16:34:34.445Z,32
2017-08-20T16:35:36.607Z,31
2017-08-20T16:36:43.347Z,28
2017-08-20T16:37:45.353Z,30
2017-08-20T16:38:48.324Z,32
2017-08-20T16:39:50.562Z,31
2017-08-20T16:40:55.844Z,26
2017-08-20T16:42:02.752Z,23
2017-08-20T16:43:06.248Z,27
2017-08-20T16:44:07.851Z,31
2017-08-20T16:45:10.502Z,29
2017-08-20T16:46:15.240Z,29
2017-08-20T16:47:20.222Z,28
2017-08-20T16:48:25.523Z,31
2017-08-20T16:49:27.332Z,28
2017-08-20T16:50:30.308Z,31
2017-08-20T16:51:33.739Z,30
2017-08-20T16:52:35.035Z,30
2017-08-20T16:53:36.541Z,31
2017-08-20T16:54:38.442Z,29
2017-08-20T16:55:40.609Z,31
2017-08-20T16:56:45.718Z,30
2017-08-20T16:57:48.057Z,29
2017-08-20T16:58:50.504Z,29
2017-08-20T16:59:59.217Z,26
2017-08-20T17:00:23.200Z,26
2017-08-20T17:01:26.489Z,31
2017-08-20T17:02:31.095Z,30
2017-08-20T17:03:32.531Z,29
2017-08-20T17:04:34.185Z,29
2017-08-20T17:05:38.699Z,30
2017-08-20T17:06:40.106Z,30
2017-08-20T17:07:42.479Z,28
2017-08-20T17:08:47.197Z,26
2017-08-20T17:09:53.926Z,30
2017-08-20T17:11:03.960Z,30
2017-08-20T17:12:10.683Z,29
2017-08-20T17:13:12.465Z,31
2017-08-20T17:14:17.422Z,29
2017-08-20T17:15:20.542Z,27
2017-08-20T17:16:23.195Z,31
2017-08-20T17:17:27.436Z,27
2017-08-20T17:18:32.070Z,29
2017-08-20T17:19:37.444Z,26
2017-08-20T17:20:42.677Z,30
2017-08-20T17:21:48.560Z,29
2017-08-20T17:22:54.910Z,31
2017-08-20T17:24:02.015Z,30
2017-08-20T17:24:35.257Z,26
2017-08-20T17:25:36.882Z,30
2017-08-20T17:26:38.098Z,30
2017-08-20T17:27:39.553Z,29
2017-08-20T17:28:40.788Z,25
2017-08-20T17:29:43.248Z,30
2017-08-20T17:30:45.575Z,30
2017-08-20T17:31:46.780Z,24
